sensor_id;sensor_type;location;lat;lon;timestamp;P1;durP1;ratioP1;P2;durP2;ratioP2
33148;SDS011;19506;51.040;3.856;2023-03-21T15:10:14;15.73;;;3.47;;
33148;SDS011;19506;51.040;3.856;2023-03-21T15:12:50;17.60;;;2.63;;
33148;SDS011;19506;51.040;3.856;2023-03-21T15:15:18;10.10;;;2.80;;
33148;SDS011;19506;51.040;3.856;2023-03-21T15:17:45;9.75;;;2.90;;
33148;SDS011;19506;51.040;3.856;2023-03-21T15:20:14;14.90;;;3.60;;
33148;SDS011;19506;51.040;3.856;2023-03-21T15:22:42;7.07;;;2.38;;
33148;SDS011;19506;51.040;3.856;2023-03-21T15:25:15;17.30;;;3.08;;
33148;SDS011;19506;51.040;3.856;2023-03-21T15:27:44;13.40;;;3.53;;
33148;SDS011;19506;51.040;3.856;2023-03-21T15:30:45;15.20;;;4.90;;
33148;SDS011;19506;51.040;3.856;2023-03-21T15:33:07;12.90;;;3.58;;
33148;SDS011;19506;51.040;3.856;2023-03-21T15:35:38;12.77;;;3.38;;
33148;SDS011;19506;51.040;3.856;2023-03-21T15:38:19;11.38;;;2.92;;
33148;SDS011;19506;51.040;3.856;2023-03-21T15:46:31;15.00;;;3.22;;
33148;SDS011;19506;51.040;3.856;2023-03-21T15:51:49;25.83;;;3.60;;
33148;SDS011;19506;51.040;3.856;2023-03-21T15:56:56;21.92;;;2.85;;
33148;SDS011;19506;51.040;3.856;2023-03-21T15:59:33;9.95;;;2.85;;
33148;SDS011;19506;51.040;3.856;2023-03-21T16:02:03;17.27;;;6.85;;
33148;SDS011;19506;51.040;3.856;2023-03-21T16:04:29;21.85;;;3.47;;
33148;SDS011;19506;51.040;3.856;2023-03-21T16:07:01;9.20;;;2.88;;
33148;SDS011;19506;51.040;3.856;2023-03-21T16:09:40;16.80;;;5.30;;
33148;SDS011;19506;51.040;3.856;2023-03-21T16:12:11;16.17;;;3.70;;
33148;SDS011;19506;51.040;3.856;2023-03-21T16:14:39;18.30;;;4.05;;
33148;SDS011;19506;51.040;3.856;2023-03-21T16:17:39;12.85;;;3.85;;
33148;SDS011;19506;51.040;3.856;2023-03-21T16:20:25;18.27;;;3.88;;
33148;SDS011;19506;51.040;3.856;2023-03-21T16:22:51;25.45;;;5.28;;
33148;SDS011;19506;51.040;3.856;2023-03-21T16:25:17;39.22;;;4.43;;
33148;SDS011;19506;51.040;3.856;2023-03-21T16:27:44;28.83;;;5.00;;
33148;SDS011;19506;51.040;3.856;2023-03-21T16:30:13;23.10;;;3.38;;
33148;SDS011;19506;51.040;3.856;2023-03-21T16:32:40;20.15;;;3.72;;
33148;SDS011;19506;51.040;3.856;2023-03-21T16:35:06;26.25;;;4.15;;
33148;SDS011;19506;51.040;3.856;2023-03-21T16:37:32;19.75;;;4.05;;
33148;SDS011;19506;51.040;3.856;2023-03-21T16:39:58;23.75;;;3.85;;
33148;SDS011;19506;51.040;3.856;2023-03-21T16:42:24;20.00;;;4.25;;
33148;SDS011;19506;51.040;3.856;2023-03-21T16:44:50;45.78;;;7.57;;
33148;SDS011;19506;51.040;3.856;2023-03-21T16:47:20;36.95;;;7.60;;
33148;SDS011;19506;51.040;3.856;2023-03-21T16:49:47;40.00;;;7.20;;
33148;SDS011;19506;51.040;3.856;2023-03-21T16:52:13;46.08;;;7.78;;
33148;SDS011;19506;51.040;3.856;2023-03-21T16:54:39;42.15;;;7.88;;
33148;SDS011;19506;51.040;3.856;2023-03-21T16:57:07;28.85;;;6.75;;
33148;SDS011;19506;51.040;3.856;2023-03-21T16:59:43;44.85;;;8.63;;
33148;SDS011;19506;51.040;3.856;2023-03-21T17:02:12;36.75;;;6.90;;
33148;SDS011;19506;51.040;3.856;2023-03-21T17:04:40;26.38;;;6.72;;
33148;SDS011;19506;51.040;3.856;2023-03-21T17:07:10;33.20;;;7.30;;
33148;SDS011;19506;51.040;3.856;2023-03-21T17:09:40;35.65;;;7.60;;
33148;SDS011;19506;51.040;3.856;2023-03-21T17:12:11;34.33;;;7.38;;
33148;SDS011;19506;51.040;3.856;2023-03-21T17:14:42;27.70;;;6.18;;
33148;SDS011;19506;51.040;3.856;2023-03-21T17:17:13;32.58;;;8.23;;
33148;SDS011;19506;51.040;3.856;2023-03-21T17:19:39;33.70;;;7.63;;
33148;SDS011;19506;51.040;3.856;2023-03-21T17:22:06;35.53;;;6.63;;
33148;SDS011;19506;51.040;3.856;2023-03-21T17:24:31;40.92;;;7.93;;
33148;SDS011;19506;51.040;3.856;2023-03-21T17:26:58;32.47;;;6.38;;
33148;SDS011;19506;51.040;3.856;2023-03-21T17:29:26;34.67;;;7.35;;
33148;SDS011;19506;51.040;3.856;2023-03-21T17:31:51;37.85;;;7.00;;
33148;SDS011;19506;51.040;3.856;2023-03-21T17:34:17;23.50;;;5.65;;
33148;SDS011;19506;51.040;3.856;2023-03-21T17:36:44;21.98;;;6.63;;
33148;SDS011;19506;51.040;3.856;2023-03-21T17:39:18;53.65;;;9.32;;
33148;SDS011;19506;51.040;3.856;2023-03-21T17:41:47;30.50;;;5.80;;
33148;SDS011;19506;51.040;3.856;2023-03-21T17:44:13;25.88;;;6.13;;
33148;SDS011;19506;51.040;3.856;2023-03-21T17:46:39;33.10;;;6.00;;
33148;SDS011;19506;51.040;3.856;2023-03-21T17:49:05;28.08;;;5.82;;
33148;SDS011;19506;51.040;3.856;2023-03-21T17:51:31;28.45;;;6.50;;
33148;SDS011;19506;51.040;3.856;2023-03-21T17:53:57;31.60;;;6.45;;
33148;SDS011;19506;51.040;3.856;2023-03-21T17:56:24;27.88;;;5.72;;
33148;SDS011;19506;51.040;3.856;2023-03-21T17:58:58;28.35;;;7.50;;
33148;SDS011;19506;51.040;3.856;2023-03-21T18:01:27;31.95;;;6.88;;
33148;SDS011;19506;51.040;3.856;2023-03-21T18:03:56;34.10;;;9.60;;
33148;SDS011;19506;51.040;3.856;2023-03-21T18:06:23;35.80;;;7.90;;
33148;SDS011;19506;51.040;3.856;2023-03-21T18:08:50;26.05;;;7.22;;
33148;SDS011;19506;51.040;3.856;2023-03-21T18:11:17;34.13;;;7.00;;
33148;SDS011;19506;51.040;3.856;2023-03-21T18:13:43;22.17;;;6.78;;
33148;SDS011;19506;51.040;3.856;2023-03-21T18:16:11;28.08;;;6.70;;
33148;SDS011;19506;51.040;3.856;2023-03-21T18:18:38;16.77;;;5.53;;
33148;SDS011;19506;51.040;3.856;2023-03-21T18:21:04;31.30;;;6.30;;
33148;SDS011;19506;51.040;3.856;2023-03-21T18:23:30;22.85;;;6.07;;
33148;SDS011;19506;51.040;3.856;2023-03-21T18:25:57;21.48;;;5.95;;
33148;SDS011;19506;51.040;3.856;2023-03-21T18:28:23;23.30;;;6.65;;
33148;SDS011;19506;51.040;3.856;2023-03-21T18:30:49;27.38;;;6.57;;
33148;SDS011;19506;51.040;3.856;2023-03-21T18:33:16;20.52;;;5.88;;
33148;SDS011;19506;51.040;3.856;2023-03-21T18:35:41;22.38;;;5.55;;
33148;SDS011;19506;51.040;3.856;2023-03-21T18:38:08;21.67;;;5.32;;
33148;SDS011;19506;51.040;3.856;2023-03-21T18:40:34;30.25;;;6.10;;
33148;SDS011;19506;51.040;3.856;2023-03-21T18:43:00;23.08;;;5.30;;
33148;SDS011;19506;51.040;3.856;2023-03-21T18:45:25;16.15;;;5.38;;
33148;SDS011;19506;51.040;3.856;2023-03-21T18:47:51;19.00;;;5.40;;
33148;SDS011;19506;51.040;3.856;2023-03-21T18:50:17;24.48;;;7.90;;
33148;SDS011;19506;51.040;3.856;2023-03-21T18:52:44;15.50;;;5.47;;
33148;SDS011;19506;51.040;3.856;2023-03-21T18:55:10;23.42;;;5.97;;
33148;SDS011;19506;51.040;3.856;2023-03-21T18:57:38;22.83;;;5.47;;
33148;SDS011;19506;51.040;3.856;2023-03-21T19:00:07;18.92;;;5.32;;
33148;SDS011;19506;51.040;3.856;2023-03-21T19:02:36;23.80;;;6.25;;
33148;SDS011;19506;51.040;3.856;2023-03-21T19:05:03;24.88;;;5.20;;
33148;SDS011;19506;51.040;3.856;2023-03-21T19:07:29;21.58;;;5.47;;
33148;SDS011;19506;51.040;3.856;2023-03-21T19:09:55;17.92;;;5.07;;
33148;SDS011;19506;51.040;3.856;2023-03-21T19:12:22;25.95;;;5.53;;
33148;SDS011;19506;51.040;3.856;2023-03-21T19:14:48;19.00;;;5.63;;
33148;SDS011;19506;51.040;3.856;2023-03-21T19:17:13;15.20;;;5.10;;
33148;SDS011;19506;51.040;3.856;2023-03-21T19:19:39;12.38;;;4.88;;
33148;SDS011;19506;51.040;3.856;2023-03-21T19:22:05;15.52;;;4.32;;
33148;SDS011;19506;51.040;3.856;2023-03-21T19:24:31;15.05;;;4.38;;
33148;SDS011;19506;51.040;3.856;2023-03-21T19:26:57;17.70;;;4.35;;
33148;SDS011;19506;51.040;3.856;2023-03-21T19:29:22;16.95;;;4.70;;
33148;SDS011;19506;51.040;3.856;2023-03-21T19:31:49;12.70;;;4.68;;
33148;SDS011;19506;51.040;3.856;2023-03-21T19:34:16;18.85;;;5.78;;
33148;SDS011;19506;51.040;3.856;2023-03-21T19:36:42;18.50;;;4.47;;
33148;SDS011;19506;51.040;3.856;2023-03-21T19:39:09;13.27;;;4.53;;
33148;SDS011;19506;51.040;3.856;2023-03-21T19:41:35;11.35;;;4.65;;
33148;SDS011;19506;51.040;3.856;2023-03-21T19:44:01;16.40;;;4.30;;
33148;SDS011;19506;51.040;3.856;2023-03-21T19:46:27;15.02;;;4.10;;
33148;SDS011;19506;51.040;3.856;2023-03-21T19:48:53;21.90;;;3.92;;
33148;SDS011;19506;51.040;3.856;2023-03-21T19:51:19;19.00;;;3.47;;
33148;SDS011;19506;51.040;3.856;2023-03-21T19:53:46;12.23;;;3.88;;
33148;SDS011;19506;51.040;3.856;2023-03-21T19:56:11;15.15;;;4.68;;
33148;SDS011;19506;51.040;3.856;2023-03-21T19:58:38;9.90;;;4.15;;
33148;SDS011;19506;51.040;3.856;2023-03-21T20:01:05;12.65;;;3.88;;
33148;SDS011;19506;51.040;3.856;2023-03-21T20:03:31;14.85;;;3.97;;
33148;SDS011;19506;51.040;3.856;2023-03-21T20:06:01;12.77;;;3.47;;
33148;SDS011;19506;51.040;3.856;2023-03-21T20:08:29;14.32;;;4.53;;
33148;SDS011;19506;51.040;3.856;2023-03-21T20:10:55;17.10;;;3.53;;
33148;SDS011;19506;51.040;3.856;2023-03-21T20:13:20;8.00;;;3.30;;
33148;SDS011;19506;51.040;3.856;2023-03-21T20:15:46;12.82;;;3.80;;
33148;SDS011;19506;51.040;3.856;2023-03-21T20:18:12;11.65;;;3.40;;
33148;SDS011;19506;51.040;3.856;2023-03-21T20:20:38;8.65;;;3.08;;
33148;SDS011;19506;51.040;3.856;2023-03-21T20:23:03;12.82;;;3.58;;
33148;SDS011;19506;51.040;3.856;2023-03-21T20:25:29;10.82;;;3.25;;
33148;SDS011;19506;51.040;3.856;2023-03-21T20:27:57;11.95;;;3.70;;
33148;SDS011;19506;51.040;3.856;2023-03-21T20:30:23;10.13;;;3.30;;
33148;SDS011;19506;51.040;3.856;2023-03-21T20:32:48;10.07;;;2.92;;
33148;SDS011;19506;51.040;3.856;2023-03-21T20:35:15;14.15;;;4.18;;
33148;SDS011;19506;51.040;3.856;2023-03-21T20:37:42;10.50;;;3.22;;
33148;SDS011;19506;51.040;3.856;2023-03-21T20:40:14;16.50;;;3.35;;
33148;SDS011;19506;51.040;3.856;2023-03-21T20:42:42;8.88;;;4.15;;
33148;SDS011;19506;51.040;3.856;2023-03-21T20:45:08;10.05;;;3.40;;
33148;SDS011;19506;51.040;3.856;2023-03-21T20:47:35;16.15;;;3.08;;
33148;SDS011;19506;51.040;3.856;2023-03-21T20:50:02;7.28;;;2.50;;
33148;SDS011;19506;51.040;3.856;2023-03-21T20:52:30;14.23;;;3.72;;
33148;SDS011;19506;51.040;3.856;2023-03-21T20:54:55;8.73;;;2.72;;
33148;SDS011;19506;51.040;3.856;2023-03-21T20:57:21;5.43;;;2.45;;
33148;SDS011;19506;51.040;3.856;2023-03-21T20:59:50;7.13;;;2.83;;
33148;SDS011;19506;51.040;3.856;2023-03-21T21:02:16;6.22;;;2.72;;
33148;SDS011;19506;51.040;3.856;2023-03-21T21:04:42;9.45;;;3.05;;
33148;SDS011;19506;51.040;3.856;2023-03-21T21:07:09;9.48;;;3.35;;
33148;SDS011;19506;51.040;3.856;2023-03-21T21:09:43;11.18;;;2.83;;
33148;SDS011;19506;51.040;3.856;2023-03-21T21:12:09;5.28;;;2.53;;
33148;SDS011;19506;51.040;3.856;2023-03-21T21:14:36;11.35;;;2.47;;
33148;SDS011;19506;51.040;3.856;2023-03-21T21:17:02;10.15;;;2.85;;
33148;SDS011;19506;51.040;3.856;2023-03-21T21:19:28;11.38;;;3.35;;
33148;SDS011;19506;51.040;3.856;2023-03-21T21:21:54;10.23;;;3.03;;
33148;SDS011;19506;51.040;3.856;2023-03-21T21:24:20;9.23;;;2.58;;
33148;SDS011;19506;51.040;3.856;2023-03-21T21:26:45;9.73;;;2.78;;
33148;SDS011;19506;51.040;3.856;2023-03-21T21:29:15;9.60;;;2.30;;
33148;SDS011;19506;51.040;3.856;2023-03-21T21:31:42;9.52;;;2.60;;
33148;SDS011;19506;51.040;3.856;2023-03-21T21:34:10;9.32;;;2.40;;
33148;SDS011;19506;51.040;3.856;2023-03-21T21:36:36;7.78;;;2.53;;
33148;SDS011;19506;51.040;3.856;2023-03-21T21:39:02;11.35;;;2.65;;
33148;SDS011;19506;51.040;3.856;2023-03-21T21:41:28;6.97;;;2.20;;
33148;SDS011;19506;51.040;3.856;2023-03-21T21:43:54;8.88;;;2.55;;
33148;SDS011;19506;51.040;3.856;2023-03-21T21:46:19;10.27;;;2.70;;
33148;SDS011;19506;51.040;3.856;2023-03-21T21:48:45;7.00;;;2.17;;
33148;SDS011;19506;51.040;3.856;2023-03-21T21:51:12;5.70;;;2.58;;
33148;SDS011;19506;51.040;3.856;2023-03-21T21:53:37;5.95;;;2.65;;
33148;SDS011;19506;51.040;3.856;2023-03-21T21:56:05;8.65;;;2.50;;
33148;SDS011;19506;51.040;3.856;2023-03-21T21:58:31;10.13;;;2.47;;
33148;SDS011;19506;51.040;3.856;2023-03-21T22:00:58;10.60;;;2.00;;
33148;SDS011;19506;51.040;3.856;2023-03-21T22:03:25;9.68;;;2.30;;
33148;SDS011;19506;51.040;3.856;2023-03-21T22:05:51;9.70;;;2.25;;
33148;SDS011;19506;51.040;3.856;2023-03-21T22:08:25;10.02;;;2.15;;
33148;SDS011;19506;51.040;3.856;2023-03-21T22:10:50;7.13;;;2.45;;
33148;SDS011;19506;51.040;3.856;2023-03-21T22:13:16;7.75;;;2.00;;
33148;SDS011;19506;51.040;3.856;2023-03-21T22:15:42;8.45;;;2.58;;
33148;SDS011;19506;51.040;3.856;2023-03-21T22:18:09;5.05;;;2.25;;
33148;SDS011;19506;51.040;3.856;2023-03-21T22:20:35;8.10;;;2.53;;
33148;SDS011;19506;51.040;3.856;2023-03-21T22:23:00;13.25;;;3.13;;
33148;SDS011;19506;51.040;3.856;2023-03-21T22:25:26;5.03;;;2.67;;
33148;SDS011;19506;51.040;3.856;2023-03-21T22:27:52;8.70;;;2.13;;
33148;SDS011;19506;51.040;3.856;2023-03-21T22:30:18;9.45;;;2.00;;
33148;SDS011;19506;51.040;3.856;2023-03-21T22:32:44;4.68;;;2.08;;
33148;SDS011;19506;51.040;3.856;2023-03-21T22:35:11;8.13;;;2.45;;
33148;SDS011;19506;51.040;3.856;2023-03-21T22:37:38;8.45;;;2.78;;
33148;SDS011;19506;51.040;3.856;2023-03-21T22:40:09;7.03;;;2.70;;
33148;SDS011;19506;51.040;3.856;2023-03-21T22:42:37;8.88;;;2.35;;
33148;SDS011;19506;51.040;3.856;2023-03-21T22:45:04;6.05;;;2.55;;
33148;SDS011;19506;51.040;3.856;2023-03-21T22:47:35;11.85;;;2.50;;
33148;SDS011;19506;51.040;3.856;2023-03-21T22:50:01;7.78;;;2.40;;
33148;SDS011;19506;51.040;3.856;2023-03-21T22:52:28;9.57;;;2.55;;
33148;SDS011;19506;51.040;3.856;2023-03-21T22:54:53;7.40;;;2.45;;
33148;SDS011;19506;51.040;3.856;2023-03-21T22:57:19;5.25;;;1.77;;
33148;SDS011;19506;51.040;3.856;2023-03-21T22:59:45;5.55;;;2.20;;
33148;SDS011;19506;51.040;3.856;2023-03-21T23:02:11;10.68;;;2.50;;
33148;SDS011;19506;51.040;3.856;2023-03-21T23:04:38;5.50;;;1.75;;
33148;SDS011;19506;51.040;3.856;2023-03-21T23:07:04;8.35;;;2.17;;
33148;SDS011;19506;51.040;3.856;2023-03-21T23:09:30;8.35;;;2.50;;
33148;SDS011;19506;51.040;3.856;2023-03-21T23:11:55;6.55;;;1.77;;
33148;SDS011;19506;51.040;3.856;2023-03-21T23:14:21;8.30;;;3.25;;
33148;SDS011;19506;51.040;3.856;2023-03-21T23:16:47;6.82;;;2.00;;
33148;SDS011;19506;51.040;3.856;2023-03-21T23:19:14;6.28;;;2.78;;
33148;SDS011;19506;51.040;3.856;2023-03-21T23:21:40;5.57;;;1.95;;
33148;SDS011;19506;51.040;3.856;2023-03-21T23:24:08;7.70;;;2.47;;
33148;SDS011;19506;51.040;3.856;2023-03-21T23:26:34;5.93;;;1.92;;
33148;SDS011;19506;51.040;3.856;2023-03-21T23:29:00;6.80;;;2.42;;
33148;SDS011;19506;51.040;3.856;2023-03-21T23:31:27;9.88;;;1.92;;
33148;SDS011;19506;51.040;3.856;2023-03-21T23:33:53;5.22;;;2.03;;
33148;SDS011;19506;51.040;3.856;2023-03-21T23:36:19;7.07;;;2.03;;
33148;SDS011;19506;51.040;3.856;2023-03-21T23:38:46;5.30;;;2.00;;
33148;SDS011;19506;51.040;3.856;2023-03-21T23:41:13;4.25;;;2.22;;
33148;SDS011;19506;51.040;3.856;2023-03-21T23:43:40;14.55;;;2.15;;
33148;SDS011;19506;51.040;3.856;2023-03-21T23:46:08;3.92;;;2.17;;
33148;SDS011;19506;51.040;3.856;2023-03-21T23:48:35;5.90;;;2.50;;
33148;SDS011;19506;51.040;3.856;2023-03-21T23:51:01;3.10;;;1.85;;
33148;SDS011;19506;51.040;3.856;2023-03-21T23:53:27;5.55;;;2.40;;
33148;SDS011;19506;51.040;3.856;2023-03-21T23:55:53;4.20;;;1.85;;
33148;SDS011;19506;51.040;3.856;2023-03-21T23:58:22;7.13;;;1.85;;
